Time,TemperatureF,DewpointF,PressureIn,WindDirection,WindDirectionDegrees,WindSpeedMPH,WindSpeedGustMPH,Humidity,HourlyPrecipIn,Conditions,Clouds,dailyrainin,SoftwareType,DateUTC
2013-01-30 00:14:00,59.4,58.8,29.89,SSW,202,0.0,-999.0,98,-99.99,,,0.00,Acu-Link.com,2013-01-30 02:14:00,
2013-01-30 00:29:00,59.2,58.6,29.88,NE,45,0.0,-999.0,98,-99.99,,,0.00,Acu-Link.com,2013-01-30 02:29:00,
2013-01-30 00:45:00,58.8,58.3,29.87,NNW,337,0.0,-999.0,98,-99.99,,,0.00,Acu-Link.com,2013-01-30 02:45:00,
2013-01-30 01:00:00,58.5,57.9,29.87,ESE,112,0.0,-999.0,98,-99.99,,,0.01,Acu-Link.com,2013-01-30 03:00:00,
2013-01-30 01:15:00,58.1,57.5,29.87,NNE,22,0.0,-999.0,98,-99.99,,,0.01,Acu-Link.com,2013-01-30 03:15:00,
2013-01-30 01:30:00,58.1,57.5,29.88,SE,135,0.0,-999.0,98,-99.99,,,0.04,Acu-Link.com,2013-01-30 03:30:00,
2013-01-30 01:45:00,57.9,57.4,29.87,East,90,0.0,-999.0,98,-99.99,,,0.04,Acu-Link.com,2013-01-30 03:45:00,
2013-01-30 02:01:00,57.9,57.4,29.87,NNE,22,0.0,-999.0,98,-99.99,,,0.04,Acu-Link.com,2013-01-30 04:01:00,
2013-01-30 02:16:00,57.7,57.2,29.86,North,0,0.0,-999.0,98,-99.99,,,0.04,Acu-Link.com,2013-01-30 04:16:00,
2013-01-30 02:31:00,57.7,57.2,29.86,NE,45,0.0,-999.0,98,-99.99,,,0.04,Acu-Link.com,2013-01-30 04:31:00,
2013-01-30 02:46:00,57.6,57.0,29.86,SE,135,0.0,-999.0,98,-99.99,,,0.04,Acu-Link.com,2013-01-30 04:46:00,
2013-01-30 03:17:00,57.2,56.6,29.84,NW,315,0.0,-999.0,98,-99.99,,,0.00,Acu-Link.com,2013-01-30 05:17:00,
2013-01-30 03:32:00,57.0,56.5,29.84,NNE,22,0.0,-999.0,98,-99.99,,,0.00,Acu-Link.com,2013-01-30 05:32:00,
2013-01-30 03:47:00,56.8,56.3,29.83,South,180,0.0,-999.0,98,-99.99,,,0.00,Acu-Link.com,2013-01-30 05:47:00,
2013-01-30 04:02:00,56.7,56.1,29.82,North,0,0.0,-999.0,98,-99.99,,,0.00,Acu-Link.com,2013-01-30 06:02:00,
2013-01-30 04:17:00,56.7,56.1,29.82,NNW,337,0.0,-999.0,98,-99.99,,,0.00,Acu-Link.com,2013-01-30 06:17:00,
2013-01-30 04:33:00,56.5,55.9,29.80,North,0,0.0,-999.0,98,-99.99,,,0.00,Acu-Link.com,2013-01-30 06:33:00,
2013-01-30 04:48:00,56.5,55.9,29.81,ESE,112,0.0,-999.0,98,-99.99,,,0.00,Acu-Link.com,2013-01-30 06:48:00,
2013-01-30 05:03:00,56.7,56.1,29.80,NE,45,0.0,-999.0,98,-99.99,,,0.00,Acu-Link.com,2013-01-30 07:03:00,
2013-01-30 05:18:00,56.8,56.3,29.78,West,270,0.0,-999.0,98,-99.99,,,0.00,Acu-Link.com,2013-01-30 07:18:00,
2013-01-30 05:33:00,57.2,56.6,29.78,North,0,0.0,-999.0,98,-99.99,,,0.00,Acu-Link.com,2013-01-30 07:33:00,
2013-01-30 05:49:00,57.6,57.0,29.76,NNW,337,0.0,-999.0,98,-99.99,,,0.00,Acu-Link.com,2013-01-30 07:49:00,
2013-01-30 06:04:00,57.9,57.4,29.77,NNE,22,0.0,-999.0,98,-99.99,,,0.00,Acu-Link.com,2013-01-30 08:04:00,
2013-01-30 06:19:00,58.1,57.5,29.76,West,270,0.0,-999.0,98,-99.99,,,0.00,Acu-Link.com,2013-01-30 08:19:00,
2013-01-30 06:34:00,58.1,57.5,29.76,NE,45,0.0,-999.0,98,-99.99,,,0.00,Acu-Link.com,2013-01-30 08:34:00,
2013-01-30 06:50:00,58.1,57.5,29.74,SW,225,0.0,-999.0,98,-99.99,,,0.00,Acu-Link.com,2013-01-30 08:50:00,
2013-01-30 07:15:00,58.1,57.5,29.74,SW,225,0.0,-999.0,98,-99.99,,,0.00,Acu-Link.com,2013-01-30 09:15:00,
2013-01-30 07:30:00,58.6,58.1,29.73,NW,315,0.0,-999.0,98,-99.99,,,0.00,Acu-Link.com,2013-01-30 09:30:00,
2013-01-30 07:45:00,58.8,58.3,29.73,South,180,0.0,-999.0,98,-99.99,,,0.00,Acu-Link.com,2013-01-30 09:45:00,
2013-01-30 08:00:00,59.0,58.4,29.73,SSE,157,2.2,-999.0,98,-99.99,,,0.00,Acu-Link.com,2013-01-30 10:00:00,
2013-01-30 08:15:00,59.2,58.6,29.71,SSW,202,0.0,-999.0,98,-99.99,,,0.00,Acu-Link.com,2013-01-30 10:15:00,
2013-01-30 08:31:00,59.7,59.2,29.70,SE,135,0.0,-999.0,98,-99.99,,,0.00,Acu-Link.com,2013-01-30 10:31:00,
2013-01-30 08:46:00,60.3,59.7,29.69,SW,225,4.7,-999.0,98,-99.99,,,0.00,Acu-Link.com,2013-01-30 10:46:00,
2013-01-30 09:01:00,60.4,59.9,29.68,SW,225,2.7,-999.0,98,-99.99,,,0.00,Acu-Link.com,2013-01-30 11:01:00,
2013-01-30 09:16:00,60.8,60.2,29.68,South,180,2.7,-999.0,98,-99.99,,,0.00,Acu-Link.com,2013-01-30 11:16:00,
2013-01-30 09:31:00,61.0,60.4,29.67,South,180,3.1,-999.0,98,-99.99,,,0.00,Acu-Link.com,2013-01-30 11:31:00,
2013-01-30 09:47:00,61.0,60.4,29.67,South,180,2.7,-999.0,98,-99.99,,,0.01,Acu-Link.com,2013-01-30 11:47:00,
2013-01-30 10:02:00,61.0,60.4,29.66,SSW,202,4.7,-999.0,98,-99.99,,,0.01,Acu-Link.com,2013-01-30 12:02:00,
2013-01-30 10:17:00,61.0,60.4,29.66,West,270,4.3,-999.0,98,-99.99,,,0.01,Acu-Link.com,2013-01-30 12:17:00,
2013-01-30 10:32:00,61.2,60.6,29.65,SSW,202,3.8,-999.0,98,-99.99,,,0.01,Acu-Link.com,2013-01-30 12:32:00,
2013-01-30 10:47:00,61.2,60.6,29.65,SSW,202,6.3,-999.0,98,-99.99,,,0.01,Acu-Link.com,2013-01-30 12:47:00,
2013-01-30 11:03:00,61.5,60.9,29.65,SSE,157,3.1,-999.0,98,-99.99,,,0.01,Acu-Link.com,2013-01-30 13:03:00,
2013-01-30 11:18:00,61.5,60.9,29.65,South,180,2.7,-999.0,98,-99.99,,,0.01,Acu-Link.com,2013-01-30 13:18:00,
2013-01-30 11:33:00,61.9,61.3,29.65,SSW,202,4.7,-999.0,98,-99.99,,,0.01,Acu-Link.com,2013-01-30 13:33:00,
2013-01-30 11:48:00,61.9,61.3,29.64,SSW,202,3.1,-999.0,98,-99.99,,,0.01,Acu-Link.com,2013-01-30 13:48:00,
2013-01-30 12:03:00,62.2,61.7,29.64,WSW,247,4.3,-999.0,98,-99.99,,,0.01,Acu-Link.com,2013-01-30 14:03:00,
2013-01-30 12:19:00,62.4,61.8,29.64,South,180,2.7,-999.0,98,-99.99,,,0.01,Acu-Link.com,2013-01-30 14:19:00,
2013-01-30 12:34:00,62.4,61.8,29.63,South,180,4.7,-999.0,98,-99.99,,,0.01,Acu-Link.com,2013-01-30 14:34:00,
2013-01-30 12:49:00,62.6,62.0,29.62,South,180,4.7,-999.0,98,-99.99,,,0.01,Acu-Link.com,2013-01-30 14:49:00,
2013-01-30 13:04:00,62.8,62.2,29.62,SE,135,2.2,-999.0,98,-99.99,,,0.01,Acu-Link.com,2013-01-30 15:04:00,
2013-01-30 13:19:00,63.0,62.4,60.44,West,270,3.1,-999.0,98,-99.99,,,0.01,Acu-Link.com,2013-01-30 15:19:00,
2013-01-30 13:35:00,63.0,62.4,29.61,WSW,247,4.7,-999.0,98,-99.99,,,0.01,Acu-Link.com,2013-01-30 15:35:00,
2013-01-30 13:50:00,63.0,62.4,29.60,SSE,157,3.1,-999.0,98,-99.99,,,0.01,Acu-Link.com,2013-01-30 15:50:00,
2013-01-30 14:05:00,63.0,62.4,29.60,South,180,2.7,-999.0,98,-99.99,,,0.01,Acu-Link.com,2013-01-30 16:05:00,
2013-01-30 14:20:00,63.0,62.4,29.59,SW,225,4.7,-999.0,98,-99.99,,,0.02,Acu-Link.com,2013-01-30 16:20:00,
2013-01-30 14:35:00,63.1,62.6,29.59,South,180,4.3,-999.0,98,-99.99,,,0.05,Acu-Link.com,2013-01-30 16:35:00,
2013-01-30 14:51:00,63.1,62.6,29.57,WSW,247,4.7,-999.0,98,-99.99,,,0.05,Acu-Link.com,2013-01-30 16:51:00,
2013-01-30 15:06:00,63.3,62.7,29.56,West,270,4.7,-999.0,98,-99.99,,,0.05,Acu-Link.com,2013-01-30 17:06:00,
2013-01-30 15:21:00,63.3,62.7,29.55,SSW,202,8.9,-999.0,98,-99.99,,,0.05,Acu-Link.com,2013-01-30 17:21:00,
2013-01-30 15:36:00,63.5,62.9,29.53,West,270,3.8,-999.0,98,-99.99,,,0.05,Acu-Link.com,2013-01-30 17:36:00,
2013-01-30 15:51:00,63.7,63.1,29.51,SSW,202,2.7,-999.0,98,-99.99,,,0.05,Acu-Link.com,2013-01-30 17:51:00,
2013-01-30 16:07:00,63.9,63.3,29.50,South,180,6.3,-999.0,98,-99.99,,,0.05,Acu-Link.com,2013-01-30 18:07:00,
2013-01-30 16:22:00,63.9,63.3,29.48,SSW,202,6.3,-999.0,98,-99.99,,,0.05,Acu-Link.com,2013-01-30 18:22:00,
2013-01-30 16:37:00,63.7,63.1,29.47,ESE,112,2.7,-999.0,98,-99.99,,,0.05,Acu-Link.com,2013-01-30 18:37:00,
2013-01-30 16:52:00,63.7,63.1,29.46,SSW,202,2.2,-999.0,98,-99.99,,,0.06,Acu-Link.com,2013-01-30 18:52:00,
2013-01-30 17:07:00,63.5,62.9,29.45,SSE,157,2.2,-999.0,98,-99.99,,,0.08,Acu-Link.com,2013-01-30 19:07:00,
2013-01-30 17:23:00,63.3,62.7,29.44,SSE,157,2.7,-999.0,98,-99.99,,,0.35,Acu-Link.com,2013-01-30 19:23:00,
2013-01-30 17:38:00,63.5,62.9,29.44,SE,135,5.1,-999.0,98,-99.99,,,0.44,Acu-Link.com,2013-01-30 19:38:00,
2013-01-30 17:53:00,60.6,60.1,29.43,NE,45,2.2,-999.0,98,-99.99,,,0.52,Acu-Link.com,2013-01-30 19:53:00,
2013-01-30 18:08:00,59.5,59.0,29.43,South,180,2.7,-999.0,98,-99.99,,,0.74,Acu-Link.com,2013-01-30 20:08:00,
2013-01-30 18:24:00,59.4,58.8,29.42,NE,45,1.1,-999.0,98,-99.99,,,1.34,Acu-Link.com,2013-01-30 20:24:00,
2013-01-30 18:39:00,59.2,58.6,29.40,SSE,157,2.2,-999.0,98,-99.99,,,1.49,Acu-Link.com,2013-01-30 20:39:00,
2013-01-30 18:54:00,59.0,58.4,29.40,South,180,2.2,-999.0,98,-99.99,,,1.63,Acu-Link.com,2013-01-30 20:54:00,
2013-01-30 19:09:00,59.0,58.4,29.40,WNW,292,1.6,-999.0,98,-99.99,,,1.71,Acu-Link.com,2013-01-30 21:09:00,
2013-01-30 19:24:00,58.1,57.5,29.39,ENE,67,5.1,-999.0,98,-99.99,,,1.81,Acu-Link.com,2013-01-30 21:24:00,
2013-01-30 19:40:00,57.9,57.4,29.40,SSE,157,2.7,-999.0,98,-99.99,,,1.83,Acu-Link.com,2013-01-30 21:40:00,
2013-01-30 19:55:00,57.9,57.4,29.38,South,180,0.0,-999.0,98,-99.99,,,1.89,Acu-Link.com,2013-01-30 21:55:00,
2013-01-30 20:10:00,57.7,57.2,29.38,NNE,22,1.6,-999.0,98,-99.99,,,1.93,Acu-Link.com,2013-01-30 22:10:00,
2013-01-30 20:25:00,57.6,57.0,29.39,East,90,2.7,-999.0,98,-99.99,,,2.00,Acu-Link.com,2013-01-30 22:25:00,
2013-01-30 20:40:00,52.9,52.3,29.41,ESE,112,1.6,-999.0,98,-99.99,,,2.06,Acu-Link.com,2013-01-30 22:40:00,
2013-01-30 20:56:00,51.8,51.3,29.42,ESE,112,4.3,-999.0,98,-99.99,,,2.07,Acu-Link.com,2013-01-30 22:56:00,
2013-01-30 21:11:00,50.5,50.0,29.45,South,180,3.1,-999.0,98,-99.99,,,2.09,Acu-Link.com,2013-01-30 23:11:00,
2013-01-30 21:26:00,49.5,48.9,29.41,NW,315,2.2,-999.0,98,-99.99,,,2.13,Acu-Link.com,2013-01-30 23:26:00,
2013-01-30 21:41:00,48.9,48.4,29.43,ESE,112,2.2,-999.0,98,-99.99,,,2.15,Acu-Link.com,2013-01-30 23:41:00,
2013-01-30 21:57:00,48.6,48.0,29.42,SSW,202,0.0,-999.0,98,-99.99,,,2.21,Acu-Link.com,2013-01-30 23:57:00,
2013-01-30 22:12:00,48.2,47.7,29.44,West,270,1.6,-999.0,98,-99.99,,,2.27,Acu-Link.com,2013-01-31 00:12:00,
2013-01-30 22:27:00,48.0,47.5,29.42,NNW,337,3.1,-999.0,98,-99.99,,,2.33,Acu-Link.com,2013-01-31 00:27:00,
2013-01-30 22:42:00,47.3,46.8,29.44,South,180,1.6,-999.0,98,-99.99,,,2.34,Acu-Link.com,2013-01-31 00:42:00,
2013-01-30 22:57:00,46.6,46.0,29.43,SSW,202,3.8,-999.0,98,-99.99,,,2.34,Acu-Link.com,2013-01-31 00:57:00,
2013-01-30 23:13:00,46.2,45.7,29.45,SSW,202,4.3,-999.0,98,-99.99,,,2.34,Acu-Link.com,2013-01-31 01:13:00,
2013-01-30 23:28:00,45.9,45.3,29.49,ESE,112,2.2,-999.0,98,-99.99,,,2.35,Acu-Link.com,2013-01-31 01:28:00,
2013-01-30 23:43:00,45.3,44.8,29.46,SSE,157,4.7,-999.0,98,-99.99,,,2.35,Acu-Link.com,2013-01-31 01:43:00,
2013-01-30 23:58:00,44.6,44.1,29.47,NNE,22,5.8,-999.0,98,-99.99,,,2.35,Acu-Link.com,2013-01-31 01:58:00,